Time;durP1;ratioP1;P1;durP2;ratioP2;P2;SDS_P1;SDS_P2;PMS_P1;PMS_P2;Temp;Humidity;BMP_temperature;BMP_pressure;BME280_temperature;BME280_humidity;BME280_pressure;Samples;Min_cycle;Max_cycle;Signal;HPM_P1;HPM_P2
2021/12/21 00:00:34;;;;;;;9.43;6.20;;;1.70;99.90;;;;;;5035045;28;20623;-91
2021/12/21 00:03:01;;;;;;;8.07;5.15;;;1.70;99.90;;;;;;5017587;28;20198;-86
2021/12/21 00:05:29;;;;;;;8.17;5.87;;;1.70;99.90;;;;;;5034848;28;20248;-86
2021/12/21 00:07:57;;;;;;;6.43;5.70;;;1.70;99.90;;;;;;5035634;28;20166;-91
2021/12/21 00:10:27;;;;;;;11.77;6.43;;;1.70;99.90;;;;;;5034770;28;20221;-85
2021/12/21 00:15:35;;;;;;;10.63;6.40;;;1.70;99.90;;;;;;5035181;28;20194;-92
2021/12/21 00:18:19;;;;;;;6.47;5.45;;;1.70;99.90;;;;;;5017264;28;20598;-92
2021/12/21 00:23:30;;;;;;;7.57;5.38;;;1.70;99.90;;;;;;5038323;28;20187;-89
2021/12/21 00:26:09;;;;;;;8.32;5.47;;;1.70;99.90;;;;;;5035230;28;20209;-86
2021/12/21 00:28:50;;;;;;;9.20;5.50;;;1.70;99.90;;;;;;5019349;28;20182;-91
2021/12/21 00:31:17;;;;;;;7.00;5.07;;;1.70;99.90;;;;;;5017079;28;20222;-91
2021/12/21 00:33:45;;;;;;;7.35;5.22;;;1.60;99.90;;;;;;5017211;28;20273;-89
2021/12/21 00:36:11;;;;;;;9.38;5.75;;;1.60;99.90;;;;;;5034767;28;20182;-85
2021/12/21 00:38:37;;;;;;;6.07;5.10;;;1.60;99.90;;;;;;5016942;28;20206;-91
2021/12/21 00:41:04;;;;;;;11.00;5.17;;;1.60;99.90;;;;;;5016908;28;20205;-86
2021/12/21 00:43:30;;;;;;;6.60;5.28;;;1.60;99.90;;;;;;5034267;28;20933;-91
2021/12/21 00:45:56;;;;;;;8.30;5.70;;;1.60;99.90;;;;;;5016740;28;20198;-86
2021/12/21 00:48:27;;;;;;;7.30;5.57;;;1.60;99.90;;;;;;5017098;28;20209;-85
2021/12/21 00:50:53;;;;;;;8.25;5.25;;;1.60;99.90;;;;;;5016749;28;20242;-86
2021/12/21 00:53:19;;;;;;;8.52;5.60;;;1.60;99.90;;;;;;5016961;28;20192;-91
2021/12/21 00:55:45;;;;;;;7.00;5.13;;;1.60;99.90;;;;;;5034065;28;20659;-92
2021/12/21 00:58:12;;;;;;;5.33;4.50;;;1.60;99.90;;;;;;5017130;28;20532;-91
2021/12/21 01:00:38;;;;;;;8.15;4.88;;;1.60;99.90;;;;;;5016455;28;20201;-86
2021/12/21 01:03:09;;;;;;;8.20;5.05;;;1.50;99.90;;;;;;5016954;28;20185;-92
2021/12/21 01:05:58;;;;;;;8.35;5.20;;;1.50;99.90;;;;;;5016328;28;20198;-92
2021/12/21 01:08:28;;;;;;;8.15;5.38;;;1.50;99.90;;;;;;5020728;28;20189;-86
2021/12/21 01:11:05;;;;;;;9.27;5.45;;;1.50;99.90;;;;;;5031153;28;20690;-86
2021/12/21 01:18:34;;;;;;;6.83;4.90;;;1.50;99.90;;;;;;5038253;28;20171;-92
2021/12/21 01:24:12;;;;;;;7.60;5.10;;;1.50;99.90;;;;;;5039843;28;20639;-86
2021/12/21 01:34:24;;;;;;;8.00;5.70;;;1.50;99.90;;;;;;5038089;28;20214;-85
2021/12/21 01:37:01;;;;;;;8.90;5.45;;;1.50;99.90;;;;;;5023486;28;20189;-86
2021/12/21 01:39:53;;;;;;;6.55;5.18;;;1.40;99.90;;;;;;5020757;28;20186;-86
2021/12/21 01:42:24;;;;;;;7.07;5.18;;;1.40;99.90;;;;;;5037193;28;20529;-85
2021/12/21 01:49:59;;;;;;;9.85;4.75;;;1.40;99.90;;;;;;5037191;28;20300;-91
2021/12/21 01:52:27;;;;;;;7.10;5.70;;;1.40;99.90;;;;;;5019907;28;20179;-90
2021/12/21 01:54:53;;;;;;;7.65;4.78;;;1.40;99.90;;;;;;5020075;28;20434;-85
2021/12/21 01:57:19;;;;;;;13.57;6.35;;;1.30;99.90;;;;;;5019585;28;20183;-91
2021/12/21 01:59:47;;;;;;;7.65;5.55;;;1.30;99.90;;;;;;5019671;28;20637;-86
2021/12/21 02:02:16;;;;;;;8.43;4.95;;;1.30;99.90;;;;;;5029422;28;20185;-91
2021/12/21 02:04:41;;;;;;;6.68;5.45;;;1.30;99.90;;;;;;5027272;28;20183;-87
2021/12/21 02:07:08;;;;;;;7.10;5.17;;;1.30;99.90;;;;;;5038894;28;20276;-90
2021/12/21 02:09:37;;;;;;;7.75;5.82;;;1.30;99.90;;;;;;5037898;28;20390;-92
2021/12/21 02:12:12;;;;;;;6.53;5.13;;;1.20;99.90;;;;;;5019397;28;20188;-90
2021/12/21 02:14:40;;;;;;;5.95;5.13;;;1.20;99.90;;;;;;5019297;28;20639;-85
2021/12/21 02:17:43;;;;;;;7.80;4.70;;;1.20;99.90;;;;;;5019758;28;20182;-91
2021/12/21 02:22:38;;;;;;;7.65;4.93;;;1.20;99.90;;;;;;5037037;28;20167;-92
2021/12/21 02:25:31;;;;;;;6.90;5.20;;;1.20;99.90;;;;;;5019443;28;20298;-86
2021/12/21 02:27:58;;;;;;;6.57;5.10;;;1.10;99.90;;;;;;5036520;28;20181;-86
2021/12/21 02:30:25;;;;;;;7.97;5.75;;;1.20;99.90;;;;;;5019258;28;20222;-86
2021/12/21 02:32:51;;;;;;;6.55;5.00;;;1.10;99.90;;;;;;5019239;28;20179;-86
2021/12/21 02:35:18;;;;;;;9.82;5.88;;;1.10;99.90;;;;;;5036431;28;20202;-87
2021/12/21 02:37:44;;;;;;;8.25;5.25;;;1.10;99.90;;;;;;5018897;28;20265;-85
2021/12/21 02:40:11;;;;;;;9.75;5.03;;;1.10;99.90;;;;;;5019196;28;20210;-86
2021/12/21 02:42:37;;;;;;;9.02;6.43;;;1.00;99.90;;;;;;5019638;28;20666;-90
2021/12/21 02:45:04;;;;;;;10.07;5.25;;;1.00;99.90;;;;;;5036424;28;20246;-91
2021/12/21 02:47:30;;;;;;;7.35;5.90;;;1.00;99.90;;;;;;5036416;28;20632;-85
2021/12/21 02:49:56;;;;;;;7.70;5.05;;;0.90;99.90;;;;;;5018792;28;20605;-86
2021/12/21 02:52:22;;;;;;;6.80;5.63;;;0.90;99.90;;;;;;5018766;28;20174;-87
2021/12/21 02:54:48;;;;;;;8.55;5.18;;;0.90;99.90;;;;;;5018725;28;20300;-91
2021/12/21 02:57:13;;;;;;;7.60;5.30;;;0.90;99.90;;;;;;5018760;28;20660;-90
2021/12/21 02:59:39;;;;;;;7.40;5.50;;;0.80;99.90;;;;;;5036829;28;20240;-91
2021/12/21 03:02:05;;;;;;;11.70;6.27;;;0.80;99.90;;;;;;5018632;28;20273;-90
2021/12/21 03:04:31;;;;;;;7.33;5.53;;;0.80;99.90;;;;;;5018937;28;20183;-91
2021/12/21 03:11:56;;;;;;;6.85;4.75;;;0.70;99.90;;;;;;5046270;28;20752;-86
2021/12/21 03:14:23;;;;;;;9.20;5.72;;;0.70;99.90;;;;;;5018925;28;20195;-92
2021/12/21 03:16:49;;;;;;;8.13;5.38;;;0.70;99.90;;;;;;5035960;28;20627;-86
2021/12/21 03:19:15;;;;;;;6.77;4.87;;;0.70;99.90;;;;;;5036035;28;20265;-86
2021/12/21 03:21:40;;;;;;;5.63;4.50;;;0.70;99.90;;;;;;5018166;28;20285;-91
2021/12/21 03:24:08;;;;;;;6.53;4.80;;;0.60;99.90;;;;;;5036834;28;20266;-92
2021/12/21 03:26:33;;;;;;;7.20;4.57;;;0.70;99.90;;;;;;5019563;28;20435;-86
2021/12/21 03:28:59;;;;;;;8.17;5.40;;;0.70;99.90;;;;;;5018314;28;20261;-86
2021/12/21 03:31:25;;;;;;;7.53;5.27;;;0.70;99.90;;;;;;5017650;28;20245;-86
2021/12/21 03:33:52;;;;;;;6.43;5.10;;;0.60;99.90;;;;;;5017777;28;20183;-86
2021/12/21 03:36:18;;;;;;;9.80;4.95;;;0.60;99.90;;;;;;5018609;28;20434;-86
2021/12/21 03:38:52;;;;;;;7.10;4.43;;;0.60;99.90;;;;;;5037856;28;20183;-87
2021/12/21 03:41:19;;;;;;;6.28;4.35;;;0.60;99.90;;;;;;5038708;28;20687;-86
2021/12/21 03:43:45;;;;;;;8.52;4.72;;;0.60;99.90;;;;;;5021896;28;20189;-92
2021/12/21 03:46:13;;;;;;;6.10;4.70;;;0.60;99.90;;;;;;5020655;28;20191;-90
2021/12/21 03:48:41;;;;;;;6.20;4.13;;;0.60;99.90;;;;;;5022254;28;20440;-92
2021/12/21 03:51:08;;;;;;;7.20;4.65;;;0.60;99.90;;;;;;5031363;28;20238;-92
2021/12/21 03:53:34;;;;;;;7.28;4.50;;;0.60;99.90;;;;;;5019470;28;20194;-92
2021/12/21 03:56:49;;;;;;;4.93;4.10;;;0.50;99.90;;;;;;5018107;28;20198;-86
2021/12/21 03:58:46;;;;;;;6.65;4.35;;;0.50;99.90;;;;;;5031431;28;20541;-86
2021/12/21 04:01:13;;;;;;;7.10;4.77;;;0.40;99.90;;;;;;5036178;28;20245;-90
2021/12/21 04:03:39;;;;;;;5.70;4.05;;;0.50;99.90;;;;;;5020969;28;20309;-86
2021/12/21 04:06:06;;;;;;;6.80;4.05;;;0.40;99.90;;;;;;5017536;28;20359;-86
2021/12/21 04:08:32;;;;;;;5.75;4.65;;;0.40;99.90;;;;;;5018041;28;20183;-86
2021/12/21 04:10:57;;;;;;;5.22;3.65;;;0.30;99.90;;;;;;5019149;28;20706;-89
2021/12/21 04:13:23;;;;;;;5.37;4.00;;;0.30;99.90;;;;;;5021212;28;20245;-86
2021/12/21 04:15:53;;;;;;;6.77;4.10;;;0.30;99.90;;;;;;5017773;28;20607;-86
2021/12/21 04:18:21;;;;;;;5.43;4.13;;;0.20;99.90;;;;;;5017581;28;20186;-87
2021/12/21 04:20:46;;;;;;;6.82;3.80;;;0.20;99.90;;;;;;5017183;28;20191;-86
2021/12/21 04:23:12;;;;;;;4.60;3.93;;;0.20;99.90;;;;;;5017106;28;20236;-86
2021/12/21 04:25:38;;;;;;;3.43;3.07;;;0.20;99.90;;;;;;5020024;28;20490;-93
2021/12/21 04:28:04;;;;;;;6.73;3.70;;;0.10;99.90;;;;;;5019351;28;20257;-92
2021/12/21 04:30:29;;;;;;;4.10;3.30;;;0.10;99.90;;;;;;5034774;28;20256;-93
2021/12/21 04:32:55;;;;;;;4.70;3.47;;;0.10;99.90;;;;;;5017039;28;20420;-86
2021/12/21 04:35:21;;;;;;;5.38;3.42;;;0.10;99.90;;;;;;5034808;28;20190;-93
2021/12/21 04:37:53;;;;;;;4.38;3.65;;;0.10;99.90;;;;;;5017221;28;20170;-86
2021/12/21 04:40:23;;;;;;;4.60;2.88;;;0.10;99.90;;;;;;5017225;28;20194;-93
2021/12/21 04:42:49;;;;;;;3.67;3.38;;;0.10;99.90;;;;;;5016929;28;20566;-93
2021/12/21 04:45:14;;;;;;;5.97;3.80;;;0.10;99.90;;;;;;5033908;28;20189;-94
2021/12/21 04:47:40;;;;;;;5.27;3.60;;;0.00;99.90;;;;;;5034225;28;20197;-85
2021/12/21 04:50:06;;;;;;;6.10;3.53;;;0.10;99.90;;;;;;5016736;28;20365;-91
2021/12/21 04:52:32;;;;;;;5.75;3.47;;;0.10;99.90;;;;;;5017020;28;20185;-92
2021/12/21 04:54:57;;;;;;;5.90;4.10;;;0.10;99.90;;;;;;5035405;28;20206;-92
2021/12/21 04:57:24;;;;;;;12.73;4.30;;;0.10;99.90;;;;;;5017322;28;20174;-91
2021/12/21 04:59:50;;;;;;;4.18;3.72;;;0.10;99.90;;;;;;5034936;28;20198;-92
2021/12/21 05:02:15;;;;;;;5.20;4.00;;;0.00;99.90;;;;;;5025616;28;20178;-88
2021/12/21 05:04:41;;;;;;;5.37;4.03;;;0.00;99.90;;;;;;5030813;28;20418;-93
2021/12/21 05:07:07;;;;;;;4.60;3.70;;;0.10;99.90;;;;;;5036443;28;20185;-88
2021/12/21 05:09:41;;;;;;;4.70;3.60;;;0.20;99.90;;;;;;5016904;28;20289;-86
2021/12/21 05:12:10;;;;;;;4.22;3.53;;;0.30;99.90;;;;;;5017020;28;20204;-86
2021/12/21 05:14:35;;;;;;;4.47;3.47;;;0.40;99.90;;;;;;5016971;28;20639;-90
2021/12/21 05:17:01;;;;;;;5.77;3.60;;;0.60;99.90;;;;;;5034110;28;20294;-89
2021/12/21 05:19:27;;;;;;;4.90;3.80;;;0.70;99.90;;;;;;5016363;28;20525;-86
2021/12/21 05:21:53;;;;;;;4.20;3.13;;;0.70;99.90;;;;;;5016077;28;20170;-85
2021/12/21 05:24:18;;;;;;;6.00;3.47;;;0.60;99.90;;;;;;5052106;28;20575;-92
2021/12/21 05:26:44;;;;;;;4.40;3.50;;;0.60;99.90;;;;;;5053240;28;20190;-87
2021/12/21 05:29:10;;;;;;;4.28;2.83;;;0.50;99.90;;;;;;5026436;28;20416;-91
2021/12/21 05:31:36;;;;;;;4.57;3.10;;;0.50;99.90;;;;;;5016428;28;20297;-86
2021/12/21 05:34:02;;;;;;;4.10;3.30;;;0.50;99.90;;;;;;5016373;28;20500;-93
2021/12/21 05:36:28;;;;;;;4.93;3.80;;;0.40;99.90;;;;;;5028746;28;20489;-93
2021/12/21 05:38:59;;;;;;;4.13;3.50;;;0.40;99.90;;;;;;5012594;28;20546;-87
2021/12/21 05:41:29;;;;;;;7.60;5.28;;;0.30;99.90;;;;;;5039999;28;20214;-86
2021/12/21 05:43:55;;;;;;;8.32;6.10;;;0.30;99.90;;;;;;5033147;28;20206;-87
2021/12/21 05:46:21;;;;;;;6.10;4.25;;;0.30;99.90;;;;;;5015149;28;20297;-89
2021/12/21 05:48:51;;;;;;;6.13;4.97;;;0.30;99.90;;;;;;5014227;28;20210;-87
2021/12/21 05:51:18;;;;;;;7.03;6.03;;;0.30;99.90;;;;;;5014402;28;20891;-89
2021/12/21 05:53:43;;;;;;;5.82;4.15;;;0.20;99.90;;;;;;5014527;28;20195;-88
2021/12/21 05:56:09;;;;;;;6.70;4.80;;;0.30;99.90;;;;;;5031518;28;20213;-92
2021/12/21 05:58:35;;;;;;;9.93;4.23;;;0.30;99.90;;;;;;5025971;28;20195;-92
2021/12/21 06:01:01;;;;;;;10.73;5.73;;;0.30;99.90;;;;;;5030876;28;20226;-92
2021/12/21 06:03:26;;;;;;;6.67;5.97;;;0.30;99.90;;;;;;5036235;28;20273;-88
2021/12/21 06:05:52;;;;;;;7.90;6.33;;;0.40;99.90;;;;;;5017216;28;20196;-88
2021/12/21 06:08:21;;;;;;;6.00;4.07;;;0.40;99.90;;;;;;5021975;28;20190;-89
2021/12/21 06:10:49;;;;;;;8.75;4.85;;;0.50;99.90;;;;;;5048864;28;20229;-88
2021/12/21 06:26:59;;;;;;;17.70;14.35;;;0.60;99.90;;;;;;5036489;28;20201;-91
2021/12/21 06:29:25;;;;;;;19.23;13.90;;;0.70;99.90;;;;;;5019103;28;20553;-92
2021/12/21 06:31:51;;;;;;;12.35;10.35;;;0.70;99.90;;;;;;5018263;28;20868;-88
2021/12/21 06:34:17;;;;;;;13.13;10.25;;;0.70;99.90;;;;;;5014165;28;20186;-90
2021/12/21 06:36:43;;;;;;;12.35;9.40;;;0.80;99.90;;;;;;5025208;28;20355;-92
2021/12/21 06:39:09;;;;;;;15.80;11.00;;;0.80;99.90;;;;;;5018193;28;20189;-90
2021/12/21 06:41:36;;;;;;;10.48;7.18;;;0.80;99.90;;;;;;5026484;28;20428;-88
2021/12/21 06:44:04;;;;;;;5.50;5.00;;;0.90;99.90;;;;;;5038154;28;20194;-88
2021/12/21 06:52:00;;;;;;;5.70;3.75;;;0.90;99.90;;;;;;5030533;28;20214;-92
2021/12/21 06:54:27;;;;;;;7.15;4.70;;;1.00;99.90;;;;;;5008286;28;20275;-88
2021/12/21 06:56:52;;;;;;;9.13;5.40;;;1.00;99.90;;;;;;5021279;28;20193;-91
2021/12/21 06:59:18;;;;;;;5.23;4.33;;;1.00;99.90;;;;;;5035522;28;20186;-88
2021/12/21 07:01:45;;;;;;;6.40;4.80;;;1.00;99.90;;;;;;5020919;28;20489;-88
2021/12/21 07:04:13;;;;;;;6.55;4.82;;;1.00;99.90;;;;;;5028725;28;20414;-88
2021/12/21 07:06:41;;;;;;;16.80;12.00;;;1.10;99.90;;;;;;5034538;28;20230;-91
2021/12/21 07:09:15;;;;;;;28.08;23.15;;;1.10;99.90;;;;;;5051822;28;20193;-88
2021/12/21 07:11:44;;;;;;;24.45;20.00;;;1.10;99.90;;;;;;5016024;28;20289;-91
2021/12/21 07:19:55;;;;;;;26.38;17.90;;;1.30;99.90;;;;;;5030277;28;20218;-91
2021/12/21 07:22:21;;;;;;;13.77;10.83;;;1.40;99.90;;;;;;5030034;28;20585;-89
2021/12/21 07:24:47;;;;;;;34.77;23.57;;;1.40;99.90;;;;;;5029438;28;20414;-91
2021/12/21 07:27:13;;;;;;;16.63;10.65;;;1.50;99.90;;;;;;5014514;28;20273;-92
2021/12/21 07:29:39;;;;;;;41.95;27.77;;;1.50;99.90;;;;;;5011131;28;20298;-91
2021/12/21 07:32:05;;;;;;;36.90;19.17;;;1.60;99.90;;;;;;5030585;28;20680;-88
2021/12/21 07:34:31;;;;;;;13.65;10.10;;;1.70;99.90;;;;;;5014746;28;20278;-92
2021/12/21 07:36:57;;;;;;;10.80;9.20;;;1.80;99.90;;;;;;5018865;28;20202;-88
2021/12/21 07:39:23;;;;;;;11.20;8.40;;;2.10;99.90;;;;;;5047479;28;20166;-92
2021/12/21 07:41:48;;;;;;;15.93;10.87;;;2.50;99.90;;;;;;5013809;28;20198;-90
2021/12/21 07:44:14;;;;;;;18.50;13.20;;;3.10;99.90;;;;;;5032447;28;20236;-93
2021/12/21 07:46:41;;;;;;;19.50;14.77;;;3.50;99.90;;;;;;5016049;28;20211;-89
2021/12/21 07:49:07;;;;;;;12.88;8.93;;;4.00;99.90;;;;;;5033567;28;20235;-88
2021/12/21 07:51:33;;;;;;;9.10;8.18;;;4.60;99.90;;;;;;5013753;28;20699;-89
2021/12/21 07:53:59;;;;;;;7.10;6.30;;;5.30;99.90;;;;;;5030219;28;20183;-88
2021/12/21 07:56:25;;;;;;;9.57;8.27;;;5.90;99.90;;;;;;5029013;28;20429;-88
2021/12/21 07:58:51;;;;;;;8.60;6.03;;;6.60;99.90;;;;;;5011895;28;20193;-88
2021/12/21 08:01:17;;;;;;;22.53;16.77;;;7.40;99.90;;;;;;5028711;28;20860;-88
2021/12/21 08:03:43;;;;;;;13.93;11.18;;;8.20;99.90;;;;;;5015015;28;20954;-94
2021/12/21 08:06:14;;;;;;;9.13;8.18;;;8.90;99.90;;;;;;5028787;28;20698;-88
2021/12/21 08:08:43;;;;;;;5.57;5.07;;;9.50;99.90;;;;;;5018825;28;20198;-92
2021/12/21 08:13:54;;;;;;;14.55;11.05;;;10.30;98.00;;;;;;5028717;28;20620;-88
2021/12/21 08:16:20;;;;;;;19.30;13.52;;;10.70;97.20;;;;;;5015773;28;20197;-88
2021/12/21 08:18:47;;;;;;;9.80;7.80;;;10.90;96.10;;;;;;5011051;28;20269;-93
2021/12/21 08:21:18;;;;;;;11.73;10.48;;;11.00;95.50;;;;;;5030104;28;20190;-92
2021/12/21 08:23:44;;;;;;;6.32;5.50;;;11.10;94.70;;;;;;5017582;28;20194;-92
2021/12/21 08:26:10;;;;;;;6.05;5.45;;;11.10;93.90;;;;;;5048471;28;20205;-93
2021/12/21 08:28:36;;;;;;;6.22;5.60;;;11.10;93.50;;;;;;5031389;28;20251;-88
2021/12/21 08:31:02;;;;;;;5.57;4.70;;;11.10;93.40;;;;;;5017119;28;20222;-88
2021/12/21 08:33:28;;;;;;;5.38;3.92;;;11.00;92.90;;;;;;5014715;28;20206;-90
2021/12/21 08:35:54;;;;;;;7.07;5.23;;;10.80;93.00;;;;;;5022752;28;20197;-88
2021/12/21 08:38:21;;;;;;;6.17;4.67;;;10.70;92.50;;;;;;5042761;28;20195;-89
2021/12/21 08:40:50;;;;;;;6.93;6.20;;;10.60;92.70;;;;;;5007138;28;20470;-93
2021/12/21 08:43:24;;;;;;;5.55;4.90;;;10.50;92.80;;;;;;5028193;28;20183;-89
2021/12/21 08:45:51;;;;;;;6.45;4.47;;;10.60;92.90;;;;;;5013284;28;20202;-93
2021/12/21 08:48:19;;;;;;;6.30;4.03;;;10.70;92.60;;;;;;5019417;28;20183;-88
2021/12/21 08:50:46;;;;;;;5.22;4.10;;;11.00;92.00;;;;;;5041023;28;20236;-91
2021/12/21 08:53:13;;;;;;;5.07;3.90;;;11.30;91.20;;;;;;5014314;28;20186;-88
2021/12/21 08:55:41;;;;;;;4.78;4.35;;;11.80;91.20;;;;;;5035831;28;20286;-88
2021/12/21 08:58:08;;;;;;;6.35;4.57;;;12.20;90.30;;;;;;5031220;28;20249;-88
2021/12/21 09:00:34;;;;;;;6.43;4.28;;;12.40;89.60;;;;;;5028879;28;20753;-88
2021/12/21 09:02:59;;;;;;;4.80;4.28;;;12.50;88.90;;;;;;5019009;28;20250;-89
2021/12/21 09:05:29;;;;;;;6.30;4.83;;;12.70;86.30;;;;;;5041304;28;20233;-91
2021/12/21 09:07:55;;;;;;;6.65;4.90;;;12.80;86.60;;;;;;5037688;28;20193;-92
2021/12/21 09:10:23;;;;;;;4.60;4.20;;;12.90;86.80;;;;;;5030291;28;20222;-92
2021/12/21 09:12:49;;;;;;;4.85;4.35;;;13.00;84.80;;;;;;5029065;28;20174;-92
2021/12/21 09:15:17;;;;;;;5.88;5.38;;;13.00;84.80;;;;;;5008864;28;20201;-89
2021/12/21 09:17:44;;;;;;;9.90;5.28;;;13.00;84.10;;;;;;5005194;28;20191;-92
2021/12/21 09:20:15;;;;;;;6.60;4.22;;;13.10;84.00;;;;;;4999358;28;20203;-92
2021/12/21 09:22:42;;;;;;;11.82;9.30;;;13.20;83.00;;;;;;5030220;28;20809;-93
2021/12/21 09:25:09;;;;;;;5.85;5.25;;;13.30;81.30;;;;;;5003423;28;20289;-93
2021/12/21 09:27:35;;;;;;;6.70;6.00;;;13.40;82.10;;;;;;5006238;28;20179;-92
2021/12/21 09:30:02;;;;;;;5.72;5.22;;;13.50;80.90;;;;;;5003200;28;20308;-92
2021/12/21 09:32:28;;;;;;;4.90;4.50;;;13.70;80.10;;;;;;5005267;28;20200;-92
2021/12/21 09:34:53;;;;;;;4.03;3.63;;;13.90;79.90;;;;;;5024876;28;20974;-93
2021/12/21 09:37:20;;;;;;;5.93;4.80;;;14.00;79.00;;;;;;5046370;28;20186;-92
2021/12/21 09:39:55;;;;;;;4.97;4.43;;;13.90;78.00;;;;;;5028932;28;20187;-91
2021/12/21 09:42:23;;;;;;;5.43;4.93;;;13.40;77.60;;;;;;5013956;28;20759;-87
2021/12/21 09:44:50;;;;;;;8.55;5.85;;;12.90;77.30;;;;;;5013344;28;20276;-88
2021/12/21 09:47:16;;;;;;;14.50;11.32;;;12.20;77.60;;;;;;5007325;28;20198;-87
2021/12/21 09:49:44;;;;;;;17.77;15.07;;;11.40;80.20;;;;;;5029692;28;20664;-88
2021/12/21 09:52:12;;;;;;;18.35;15.27;;;10.60;81.10;;;;;;5036602;28;20195;-87
2021/12/21 09:54:39;;;;;;;9.70;8.70;;;9.90;83.30;;;;;;5023978;28;20549;-93
2021/12/21 09:57:07;;;;;;;7.13;6.43;;;9.40;84.40;;;;;;5029086;28;20201;-88
2021/12/21 09:59:33;;;;;;;6.82;5.00;;;9.20;86.00;;;;;;5014135;28;20183;-87
2021/12/21 10:01:59;;;;;;;7.33;6.63;;;9.10;86.30;;;;;;5007495;28;20188;-92
2021/12/21 10:04:26;;;;;;;8.13;5.65;;;9.00;86.80;;;;;;5012807;28;20439;-86
2021/12/21 10:06:56;;;;;;;8.60;7.25;;;8.90;86.30;;;;;;5035851;28;20612;-87
2021/12/21 10:09:33;;;;;;;14.07;10.05;;;8.70;86.10;;;;;;5041225;28;20193;-93
2021/12/21 10:11:59;;;;;;;83.78;37.10;;;8.50;86.00;;;;;;5011821;28;20625;-86
2021/12/21 10:14:26;;;;;;;122.77;51.47;;;8.30;86.70;;;;;;5030757;28;20186;-88
2021/12/21 10:17:07;;;;;;;16.85;9.98;;;8.10;88.10;;;;;;5012205;28;20430;-86
2021/12/21 10:19:34;;;;;;;7.80;5.60;;;8.20;89.00;;;;;;5018914;28;20182;-88
2021/12/21 10:22:12;;;;;;;11.50;10.38;;;8.30;87.30;;;;;;5041311;28;20209;-88
2021/12/21 10:24:50;;;;;;;6.00;5.07;;;8.30;88.70;;;;;;5031671;28;20552;-87
2021/12/21 10:27:18;;;;;;;6.68;4.90;;;8.40;87.00;;;;;;5027659;28;20203;-88
2021/12/21 10:29:51;;;;;;;6.32;4.90;;;8.60;88.20;;;;;;5032292;28;20189;-88
2021/12/21 10:32:25;;;;;;;9.40;6.55;;;8.60;88.40;;;;;;5014609;28;20194;-88
2021/12/21 10:35:00;;;;;;;6.20;4.53;;;8.50;87.00;;;;;;5016860;28;20207;-92
2021/12/21 10:37:33;;;;;;;5.50;3.70;;;8.50;87.60;;;;;;5029425;28;20189;-91
2021/12/21 10:40:23;;;;;;;5.43;3.40;;;8.40;88.70;;;;;;5015148;28;20211;-92
2021/12/21 10:42:51;;;;;;;4.72;4.32;;;8.30;87.20;;;;;;5017644;28;20182;-92
2021/12/21 10:45:23;;;;;;;8.10;6.47;;;8.20;87.80;;;;;;5025485;28;20294;-93
2021/12/21 10:47:49;;;;;;;7.63;4.80;;;8.20;88.00;;;;;;5041129;28;20186;-87
2021/12/21 10:50:15;;;;;;;5.75;4.28;;;8.10;88.10;;;;;;5032278;28;20237;-88
2021/12/21 10:52:47;;;;;;;7.30;5.40;;;8.00;87.70;;;;;;5012431;28;20183;-93
2021/12/21 10:55:13;;;;;;;7.03;4.78;;;8.00;88.30;;;;;;5033858;28;20442;-93
2021/12/21 10:57:38;;;;;;;6.60;5.33;;;8.00;89.30;;;;;;5006216;28;20652;-88
2021/12/21 11:00:14;;;;;;;7.37;4.73;;;7.90;88.50;;;;;;5018146;28;20457;-86
2021/12/21 11:02:40;;;;;;;8.85;4.88;;;7.80;87.20;;;;;;5038413;28;20652;-87
2021/12/21 11:05:11;;;;;;;5.95;4.53;;;7.60;87.90;;;;;;5009379;28;20198;-92
2021/12/21 11:10:10;;;;;;;6.32;4.53;;;7.10;89.40;;;;;;5030046;28;20213;-88
2021/12/21 11:12:54;;;;;;;6.28;5.03;;;7.00;89.50;;;;;;5009352;28;20199;-92
2021/12/21 11:15:31;;;;;;;9.75;7.70;;;6.70;89.80;;;;;;5005522;28;20206;-93
2021/12/21 11:18:07;;;;;;;6.10;5.00;;;6.50;90.30;;;;;;5014535;28;20194;-93
2021/12/21 11:20:35;;;;;;;6.38;4.80;;;6.30;90.50;;;;;;5010301;28;20213;-93
2021/12/21 11:23:02;;;;;;;8.90;6.13;;;6.30;90.80;;;;;;5029714;28;20183;-88
2021/12/21 11:25:31;;;;;;;6.70;5.75;;;6.30;90.40;;;;;;5012561;28;20207;-93
2021/12/21 11:28:00;;;;;;;7.25;5.60;;;6.30;90.50;;;;;;5010268;28;20179;-88
2021/12/21 11:30:26;;;;;;;6.95;4.80;;;6.20;91.40;;;;;;5010762;28;20762;-89
2021/12/21 11:32:54;;;;;;;6.30;5.70;;;6.30;90.90;;;;;;5012781;28;20182;-88
2021/12/21 11:38:01;;;;;;;7.07;6.00;;;6.30;90.50;;;;;;5036099;28;20178;-93
2021/12/21 11:40:30;;;;;;;9.45;6.15;;;6.30;90.30;;;;;;5024628;28;20636;-89
2021/12/21 11:43:17;;;;;;;25.90;14.07;;;6.30;90.50;;;;;;5004661;28;20273;-90
2021/12/21 11:45:51;;;;;;;20.25;14.95;;;6.30;90.30;;;;;;5008187;28;20233;-89
2021/12/21 11:48:38;;;;;;;5.80;4.97;;;6.30;90.10;;;;;;5007314;28;20205;-93
2021/12/21 11:51:09;;;;;;;6.15;5.20;;;6.30;90.00;;;;;;5033056;28;20237;-89
2021/12/21 11:53:36;;;;;;;4.88;4.20;;;6.30;89.20;;;;;;5015253;28;20187;-88
2021/12/21 11:56:04;;;;;;;6.72;4.38;;;6.30;89.00;;;;;;5007965;28;20206;-88
2021/12/21 11:58:37;;;;;;;9.35;7.85;;;6.30;89.10;;;;;;5010293;28;20225;-88
2021/12/21 12:01:14;;;;;;;8.65;5.95;;;6.30;89.10;;;;;;5028636;28;20594;-87
2021/12/21 12:03:46;;;;;;;13.82;10.45;;;6.30;89.70;;;;;;5022063;28;20190;-93
2021/12/21 12:06:15;;;;;;;5.40;4.53;;;6.30;88.10;;;;;;5007557;28;21140;-88
2021/12/21 12:08:52;;;;;;;4.82;4.30;;;6.30;88.10;;;;;;5024297;28;20191;-88
2021/12/21 12:11:35;;;;;;;12.10;5.45;;;6.30;88.60;;;;;;5032666;28;21367;-93
2021/12/21 12:14:22;;;;;;;6.20;5.60;;;6.30;88.20;;;;;;5037403;28;20689;-93
2021/12/21 12:16:56;;;;;;;4.60;4.10;;;6.30;87.00;;;;;;5010733;28;20205;-93
2021/12/21 12:19:31;;;;;;;5.15;4.07;;;6.30;87.20;;;;;;5012605;28;20271;-93
2021/12/21 12:22:04;;;;;;;4.72;4.30;;;6.30;87.10;;;;;;5042627;28;20671;-93
2021/12/21 12:24:39;;;;;;;5.95;4.85;;;6.30;87.10;;;;;;5008269;28;20185;-87
2021/12/21 12:27:09;;;;;;;4.75;3.58;;;6.30;86.90;;;;;;5011063;28;20546;-88
2021/12/21 12:29:54;;;;;;;6.50;4.18;;;6.30;86.80;;;;;;5022648;28;20183;-87
2021/12/21 12:32:36;;;;;;;4.63;4.00;;;6.30;85.50;;;;;;5018537;28;20657;-92
2021/12/21 12:35:17;;;;;;;4.38;3.97;;;6.30;85.50;;;;;;5024320;28;20201;-93
2021/12/21 12:37:50;;;;;;;4.28;3.28;;;6.20;86.10;;;;;;5030411;28;20178;-93
2021/12/21 12:40:18;;;;;;;10.25;5.72;;;6.20;84.60;;;;;;5008523;28;20201;-88
2021/12/21 12:43:08;;;;;;;4.03;3.63;;;6.10;85.30;;;;;;5029429;28;20267;-88
2021/12/21 12:45:40;;;;;;;3.58;3.17;;;6.10;85.10;;;;;;4999947;28;20239;-93
2021/12/21 12:48:18;;;;;;;12.55;10.10;;;6.10;84.50;;;;;;5024977;28;20232;-94
2021/12/21 12:50:45;;;;;;;5.97;5.45;;;6.10;85.90;;;;;;5027485;28;20233;-93
2021/12/21 12:53:11;;;;;;;4.97;3.70;;;6.10;85.30;;;;;;5005033;28;20187;-94
2021/12/21 12:55:36;;;;;;;8.95;6.78;;;6.10;84.00;;;;;;5008862;28;20663;-93
2021/12/21 12:58:11;;;;;;;5.97;4.10;;;6.10;85.30;;;;;;5001077;28;20191;-88
2021/12/21 13:00:37;;;;;;;10.82;8.73;;;6.10;85.60;;;;;;5039601;28;20201;-93
2021/12/21 13:03:08;;;;;;;4.05;3.20;;;6.00;85.50;;;;;;5010282;28;21306;-93
2021/12/21 13:05:45;;;;;;;3.38;3.08;;;6.10;83.60;;;;;;5001457;28;20547;-94
2021/12/21 13:08:15;;;;;;;3.20;2.33;;;6.10;84.30;;;;;;5038764;28;20174;-88
2021/12/21 13:10:48;;;;;;;5.80;4.28;;;6.10;84.20;;;;;;5011975;28;20634;-88
2021/12/21 13:13:15;;;;;;;9.07;6.10;;;6.20;82.10;;;;;;5021223;28;20194;-88
2021/12/21 13:15:50;;;;;;;3.60;3.30;;;6.10;83.00;;;;;;5019094;28;20202;-92
2021/12/21 13:18:18;;;;;;;4.03;3.30;;;6.10;82.60;;;;;;5027678;28;20182;-89
2021/12/21 13:20:46;;;;;;;17.38;13.10;;;6.10;82.10;;;;;;5031287;28;20308;-94
2021/12/21 13:23:30;;;;;;;9.65;8.85;;;6.20;82.80;;;;;;5018202;28;20190;-88
2021/12/21 13:26:07;;;;;;;4.57;4.18;;;6.20;83.00;;;;;;5024563;28;20474;-90
2021/12/21 13:28:45;;;;;;;4.75;4.15;;;6.30;83.40;;;;;;5013963;28;20186;-93
2021/12/21 13:31:11;;;;;;;3.38;3.08;;;6.40;84.00;;;;;;5030357;28;20247;-88
2021/12/21 13:33:40;;;;;;;9.40;6.93;;;6.60;82.70;;;;;;5012924;28;20224;-94
2021/12/21 13:36:08;;;;;;;15.85;10.38;;;6.70;83.00;;;;;;5011602;28;20414;-93
2021/12/21 13:38:37;;;;;;;28.80;20.98;;;6.90;82.00;;;;;;5009663;28;20192;-88
2021/12/21 13:41:07;;;;;;;43.03;29.50;;;6.90;81.10;;;;;;5025668;28;20203;-88
2021/12/21 13:43:35;;;;;;;18.00;11.65;;;7.00;81.10;;;;;;5026887;28;20197;-93
2021/12/21 13:46:03;;;;;;;9.98;5.78;;;7.10;81.40;;;;;;5051175;28;20752;-94
2021/12/21 13:48:31;;;;;;;11.38;6.90;;;7.20;81.60;;;;;;5015968;28;20174;-88
2021/12/21 13:51:12;;;;;;;8.33;5.90;;;7.40;81.80;;;;;;4962956;28;1143858;-88
2021/12/21 13:53:58;;;;;;;5.75;3.88;;;7.60;81.60;;;;;;5012914;28;20516;-88
2021/12/21 13:56:30;;;;;;;12.32;5.78;;;7.80;81.50;;;;;;5010906;28;20579;-89
2021/12/21 13:58:57;;;;;;;8.85;5.53;;;8.00;81.00;;;;;;5007589;28;20190;-88
2021/12/21 14:01:29;;;;;;;8.38;5.10;;;8.20;80.10;;;;;;4989716;28;20208;-94
2021/12/21 14:04:02;;;;;;;5.60;4.40;;;8.50;79.20;;;;;;5009316;28;20191;-88
2021/12/21 14:06:29;;;;;;;9.18;5.20;;;8.70;78.60;;;;;;4993771;28;20203;-93
2021/12/21 14:08:58;;;;;;;8.50;7.60;;;8.80;79.00;;;;;;5012652;28;20175;-93